Terminal Aerodrome Forecast
Issued by NWS Sioux Falls, SD

Home | Current Version | Previous Version | Graphics & Text | Print | Product List | Glossary On
Versions: 1 2 3 4 5 6 7 8 9 10 11 12 13 14 15 16
752
FTUS43 KFSD 301120
TAFHON
TAF
KHON 301120Z 3012/3112 13007KT P6SM BKN250
      TEMPO 3012/3013 -TSRA BKN080CB
     FM301900 16012KT P6SM BKN250
     FM310000 17010KT P6SM BKN090
      TEMPO 3101/3103 VRB25G40KT 6SM TSRA BKN050CB
     FM310500 28008KT P6SM BKN200=

USA.gov is the U.S. government's official web portal to all federal, state and local government web resources and services.